sensor_id;sensor_type;location;lat;lon;timestamp;temperature;humidity
37324;DHT22;23205;49.986;18.950;2022-08-01T00:03:18;15.40;99.90
37324;DHT22;23205;49.986;18.950;2022-08-01T00:08:26;15.40;99.90
37324;DHT22;23205;49.986;18.950;2022-08-01T00:13:28;15.40;99.90
37324;DHT22;23205;49.986;18.950;2022-08-01T00:18:32;15.30;99.90
37324;DHT22;23205;49.986;18.950;2022-08-01T00:23:39;15.30;99.90
37324;DHT22;23205;49.986;18.950;2022-08-01T00:28:41;15.20;99.90
37324;DHT22;23205;49.986;18.950;2022-08-01T00:33:43;15.10;99.90
37324;DHT22;23205;49.986;18.950;2022-08-01T00:38:49;15.10;99.90
37324;DHT22;23205;49.986;18.950;2022-08-01T00:43:50;15.00;99.90
37324;DHT22;23205;49.986;18.950;2022-08-01T00:48:50;14.90;99.90
37324;DHT22;23205;49.986;18.950;2022-08-01T00:53:52;14.70;99.90
37324;DHT22;23205;49.986;18.950;2022-08-01T00:58:55;14.70;99.90
37324;DHT22;23205;49.986;18.950;2022-08-01T01:03:56;14.60;99.90
37324;DHT22;23205;49.986;18.950;2022-08-01T01:19:59;14.40;99.90
37324;DHT22;23205;49.986;18.950;2022-08-01T01:30:21;14.30;99.90
37324;DHT22;23205;49.986;18.950;2022-08-01T01:35:26;14.20;99.90
37324;DHT22;23205;49.986;18.950;2022-08-01T01:40:31;14.20;99.90
37324;DHT22;23205;49.986;18.950;2022-08-01T01:45:33;14.10;99.90
37324;DHT22;23205;49.986;18.950;2022-08-01T01:50:37;13.90;99.90
37324;DHT22;23205;49.986;18.950;2022-08-01T01:55:39;13.80;99.90
37324;DHT22;23205;49.986;18.950;2022-08-01T02:00:45;13.90;99.90
37324;DHT22;23205;49.986;18.950;2022-08-01T02:05:48;13.80;99.90
37324;DHT22;23205;49.986;18.950;2022-08-01T02:10:52;13.80;99.90
37324;DHT22;23205;49.986;18.950;2022-08-01T02:16:12;13.70;99.90
37324;DHT22;23205;49.986;18.950;2022-08-01T02:21:18;13.70;99.90
37324;DHT22;23205;49.986;18.950;2022-08-01T02:26:22;13.70;99.90
37324;DHT22;23205;49.986;18.950;2022-08-01T02:31:24;13.60;99.90
37324;DHT22;23205;49.986;18.950;2022-08-01T02:36:28;13.50;99.90
37324;DHT22;23205;49.986;18.950;2022-08-01T02:41:30;13.60;99.90
37324;DHT22;23205;49.986;18.950;2022-08-01T02:46:37;13.50;99.90
37324;DHT22;23205;49.986;18.950;2022-08-01T02:51:40;13.60;99.90
37324;DHT22;23205;49.986;18.950;2022-08-01T02:56:41;13.50;99.90
37324;DHT22;23205;49.986;18.950;2022-08-01T03:01:45;13.40;99.90
37324;DHT22;23205;49.986;18.950;2022-08-01T03:06:47;13.30;99.90
37324;DHT22;23205;49.986;18.950;2022-08-01T03:11:49;13.10;99.90
37324;DHT22;23205;49.986;18.950;2022-08-01T03:16:51;13.10;99.90
37324;DHT22;23205;49.986;18.950;2022-08-01T03:21:54;13.10;99.90
37324;DHT22;23205;49.986;18.950;2022-08-01T03:26:56;13.10;99.90
37324;DHT22;23205;49.986;18.950;2022-08-01T03:32:00;12.90;99.90
37324;DHT22;23205;49.986;18.950;2022-08-01T03:37:09;13.00;99.90
37324;DHT22;23205;49.986;18.950;2022-08-01T03:42:16;13.00;99.90
37324;DHT22;23205;49.986;18.950;2022-08-01T03:47:19;13.00;99.90
37324;DHT22;23205;49.986;18.950;2022-08-01T03:52:22;13.10;99.90
37324;DHT22;23205;49.986;18.950;2022-08-01T03:57:28;13.10;99.90
37324;DHT22;23205;49.986;18.950;2022-08-01T04:02:29;13.10;99.90
37324;DHT22;23205;49.986;18.950;2022-08-01T04:07:31;13.20;99.90
37324;DHT22;23205;49.986;18.950;2022-08-01T04:12:33;13.20;99.90
37324;DHT22;23205;49.986;18.950;2022-08-01T04:17:34;13.30;99.90
37324;DHT22;23205;49.986;18.950;2022-08-01T04:22:35;13.30;99.90
37324;DHT22;23205;49.986;18.950;2022-08-01T04:27:38;13.60;99.90
37324;DHT22;23205;49.986;18.950;2022-08-01T04:32:43;13.70;99.90
37324;DHT22;23205;49.986;18.950;2022-08-01T04:37:47;13.90;99.90
37324;DHT22;23205;49.986;18.950;2022-08-01T04:42:49;13.90;99.90
37324;DHT22;23205;49.986;18.950;2022-08-01T04:47:52;13.90;99.90
37324;DHT22;23205;49.986;18.950;2022-08-01T04:52:53;14.00;99.90
37324;DHT22;23205;49.986;18.950;2022-08-01T04:57:53;14.10;99.90
37324;DHT22;23205;49.986;18.950;2022-08-01T05:02:54;14.30;99.90
37324;DHT22;23205;49.986;18.950;2022-08-01T05:07:55;14.50;99.90
37324;DHT22;23205;49.986;18.950;2022-08-01T05:12:56;14.60;99.90
37324;DHT22;23205;49.986;18.950;2022-08-01T05:17:57;14.80;99.90
37324;DHT22;23205;49.986;18.950;2022-08-01T05:22:58;15.00;99.90
37324;DHT22;23205;49.986;18.950;2022-08-01T05:27:59;15.10;99.90
37324;DHT22;23205;49.986;18.950;2022-08-01T05:33:00;15.30;99.90
37324;DHT22;23205;49.986;18.950;2022-08-01T05:38:01;15.40;99.90
37324;DHT22;23205;49.986;18.950;2022-08-01T05:43:02;15.60;99.90
37324;DHT22;23205;49.986;18.950;2022-08-01T05:48:03;15.70;99.90
37324;DHT22;23205;49.986;18.950;2022-08-01T05:53:04;15.80;99.90
37324;DHT22;23205;49.986;18.950;2022-08-01T05:58:05;15.90;99.90
37324;DHT22;23205;49.986;18.950;2022-08-01T06:03:06;16.10;99.90
37324;DHT22;23205;49.986;18.950;2022-08-01T06:08:07;16.30;99.90
37324;DHT22;23205;49.986;18.950;2022-08-01T06:13:10;16.40;99.90
37324;DHT22;23205;49.986;18.950;2022-08-01T06:18:11;16.50;99.90
37324;DHT22;23205;49.986;18.950;2022-08-01T06:23:12;16.70;99.90
37324;DHT22;23205;49.986;18.950;2022-08-01T06:28:16;16.90;99.90
37324;DHT22;23205;49.986;18.950;2022-08-01T06:33:19;17.20;99.90
37324;DHT22;23205;49.986;18.950;2022-08-01T06:38:20;17.30;99.90
37324;DHT22;23205;49.986;18.950;2022-08-01T06:43:21;17.40;99.90
37324;DHT22;23205;49.986;18.950;2022-08-01T06:48:22;17.70;99.90
37324;DHT22;23205;49.986;18.950;2022-08-01T06:53:25;18.00;99.90
37324;DHT22;23205;49.986;18.950;2022-08-01T06:58:26;18.30;99.90
37324;DHT22;23205;49.986;18.950;2022-08-01T07:03:27;18.60;99.90
37324;DHT22;23205;49.986;18.950;2022-08-01T07:08:31;18.90;99.90
37324;DHT22;23205;49.986;18.950;2022-08-01T07:13:31;19.10;99.90
37324;DHT22;23205;49.986;18.950;2022-08-01T07:18:33;19.50;99.90
37324;DHT22;23205;49.986;18.950;2022-08-01T07:23:34;19.80;99.90
37324;DHT22;23205;49.986;18.950;2022-08-01T07:28:35;20.10;99.90
37324;DHT22;23205;49.986;18.950;2022-08-01T07:33:35;20.30;99.90
37324;DHT22;23205;49.986;18.950;2022-08-01T07:38:39;20.60;99.90
37324;DHT22;23205;49.986;18.950;2022-08-01T07:43:42;20.80;99.90
37324;DHT22;23205;49.986;18.950;2022-08-01T07:48:46;20.80;99.90
37324;DHT22;23205;49.986;18.950;2022-08-01T07:53:47;20.80;99.90
37324;DHT22;23205;49.986;18.950;2022-08-01T07:58:48;21.00;99.90
37324;DHT22;23205;49.986;18.950;2022-08-01T08:03:49;21.20;99.90
37324;DHT22;23205;49.986;18.950;2022-08-01T08:08:50;21.20;99.90
37324;DHT22;23205;49.986;18.950;2022-08-01T08:13:51;21.40;99.90
37324;DHT22;23205;49.986;18.950;2022-08-01T08:18:51;21.30;99.90
37324;DHT22;23205;49.986;18.950;2022-08-01T08:23:54;21.50;99.90
37324;DHT22;23205;49.986;18.950;2022-08-01T08:29:15;21.70;99.90
37324;DHT22;23205;49.986;18.950;2022-08-01T08:34:16;21.90;99.90
37324;DHT22;23205;49.986;18.950;2022-08-01T08:39:22;21.90;99.90
37324;DHT22;23205;49.986;18.950;2022-08-01T08:44:23;22.10;99.90
37324;DHT22;23205;49.986;18.950;2022-08-01T08:49:28;22.20;99.90
37324;DHT22;23205;49.986;18.950;2022-08-01T08:54:32;22.50;99.90
37324;DHT22;23205;49.986;18.950;2022-08-01T08:59:34;22.70;99.90
37324;DHT22;23205;49.986;18.950;2022-08-01T09:04:36;22.80;99.90
37324;DHT22;23205;49.986;18.950;2022-08-01T11:34:57;25.70;92.20
37324;DHT22;23205;49.986;18.950;2022-08-01T11:40:17;25.40;94.80
37324;DHT22;23205;49.986;18.950;2022-08-01T11:45:19;25.10;96.00
37324;DHT22;23205;49.986;18.950;2022-08-01T11:50:34;24.80;95.20
37324;DHT22;23205;49.986;18.950;2022-08-01T11:55:35;24.40;97.40
37324;DHT22;23205;49.986;18.950;2022-08-01T12:00:36;24.50;99.10
37324;DHT22;23205;49.986;18.950;2022-08-01T12:05:37;24.40;99.50
37324;DHT22;23205;49.986;18.950;2022-08-01T12:10:39;24.70;99.90
37324;DHT22;23205;49.986;18.950;2022-08-01T12:16:06;24.70;97.50
37324;DHT22;23205;49.986;18.950;2022-08-01T12:21:12;24.60;97.60
37324;DHT22;23205;49.986;18.950;2022-08-01T12:26:13;24.70;99.80
37324;DHT22;23205;49.986;18.950;2022-08-01T12:31:14;25.00;96.90
37324;DHT22;23205;49.986;18.950;2022-08-01T12:36:27;24.90;97.50
37324;DHT22;23205;49.986;18.950;2022-08-01T12:41:32;24.50;99.00
37324;DHT22;23205;49.986;18.950;2022-08-01T12:46:33;24.20;99.90
37324;DHT22;23205;49.986;18.950;2022-08-01T12:51:34;24.30;99.90
37324;DHT22;23205;49.986;18.950;2022-08-01T12:56:35;24.00;99.90
37324;DHT22;23205;49.986;18.950;2022-08-01T13:01:36;23.80;99.90
37324;DHT22;23205;49.986;18.950;2022-08-01T13:06:41;23.90;99.90
37324;DHT22;23205;49.986;18.950;2022-08-01T13:11:42;23.80;99.90
37324;DHT22;23205;49.986;18.950;2022-08-01T13:16:47;23.90;99.90
37324;DHT22;23205;49.986;18.950;2022-08-01T13:21:55;24.20;99.90
37324;DHT22;23205;49.986;18.950;2022-08-01T13:37:15;25.60;95.00
37324;DHT22;23205;49.986;18.950;2022-08-01T13:42:16;26.20;92.20
37324;DHT22;23205;49.986;18.950;2022-08-01T13:47:17;26.70;92.10
37324;DHT22;23205;49.986;18.950;2022-08-01T13:52:18;26.50;90.70
37324;DHT22;23205;49.986;18.950;2022-08-01T13:57:18;26.50;90.80
37324;DHT22;23205;49.986;18.950;2022-08-01T14:02:28;26.50;91.00
37324;DHT22;23205;49.986;18.950;2022-08-01T14:07:32;26.70;91.70
37324;DHT22;23205;49.986;18.950;2022-08-01T14:12:34;26.50;89.90
37324;DHT22;23205;49.986;18.950;2022-08-01T14:17:35;26.30;91.20
37324;DHT22;23205;49.986;18.950;2022-08-01T14:22:38;26.50;92.90
37324;DHT22;23205;49.986;18.950;2022-08-01T14:27:44;26.50;90.50
37324;DHT22;23205;49.986;18.950;2022-08-01T14:32:45;26.40;91.20
37324;DHT22;23205;49.986;18.950;2022-08-01T14:37:51;26.30;92.40
37324;DHT22;23205;49.986;18.950;2022-08-01T14:42:52;26.20;91.70
37324;DHT22;23205;49.986;18.950;2022-08-01T14:47:55;26.50;91.70
37324;DHT22;23205;49.986;18.950;2022-08-01T14:52:59;26.70;90.70
37324;DHT22;23205;49.986;18.950;2022-08-01T14:58:00;26.30;90.60
37324;DHT22;23205;49.986;18.950;2022-08-01T15:03:04;25.80;91.60
37324;DHT22;23205;49.986;18.950;2022-08-01T15:08:06;25.60;92.90
37324;DHT22;23205;49.986;18.950;2022-08-01T15:13:07;25.60;94.20
37324;DHT22;23205;49.986;18.950;2022-08-01T15:18:10;25.50;94.10
37324;DHT22;23205;49.986;18.950;2022-08-01T15:23:12;25.20;95.10
37324;DHT22;23205;49.986;18.950;2022-08-01T15:28:17;25.00;97.50
37324;DHT22;23205;49.986;18.950;2022-08-01T15:33:18;24.80;96.70
37324;DHT22;23205;49.986;18.950;2022-08-01T15:38:21;24.70;98.40
37324;DHT22;23205;49.986;18.950;2022-08-01T15:43:22;24.80;98.30
37324;DHT22;23205;49.986;18.950;2022-08-01T15:48:23;24.80;98.30
37324;DHT22;23205;49.986;18.950;2022-08-01T15:53:28;24.80;98.70
37324;DHT22;23205;49.986;18.950;2022-08-01T15:58:28;24.70;99.90
37324;DHT22;23205;49.986;18.950;2022-08-01T16:03:29;24.70;99.90
37324;DHT22;23205;49.986;18.950;2022-08-01T16:08:30;24.90;99.90
37324;DHT22;23205;49.986;18.950;2022-08-01T16:13:32;25.00;99.90
37324;DHT22;23205;49.986;18.950;2022-08-01T16:18:33;25.00;99.90
37324;DHT22;23205;49.986;18.950;2022-08-01T16:23:34;25.00;99.90
37324;DHT22;23205;49.986;18.950;2022-08-01T16:28:35;24.90;99.00
37324;DHT22;23205;49.986;18.950;2022-08-01T16:33:36;24.70;99.10
37324;DHT22;23205;49.986;18.950;2022-08-01T16:38:37;24.70;98.30
37324;DHT22;23205;49.986;18.950;2022-08-01T16:43:37;24.70;98.40
37324;DHT22;23205;49.986;18.950;2022-08-01T16:48:38;24.70;98.10
37324;DHT22;23205;49.986;18.950;2022-08-01T16:53:42;24.60;98.50
37324;DHT22;23205;49.986;18.950;2022-08-01T16:58:47;24.50;98.20
37324;DHT22;23205;49.986;18.950;2022-08-01T17:03:48;24.40;99.70
37324;DHT22;23205;49.986;18.950;2022-08-01T17:08:49;24.20;99.90
37324;DHT22;23205;49.986;18.950;2022-08-01T17:13:50;24.10;99.90
37324;DHT22;23205;49.986;18.950;2022-08-01T17:18:51;23.90;99.90
37324;DHT22;23205;49.986;18.950;2022-08-01T17:23:52;23.90;99.90
37324;DHT22;23205;49.986;18.950;2022-08-01T17:28:53;23.80;99.90
37324;DHT22;23205;49.986;18.950;2022-08-01T17:33:56;23.60;99.90
37324;DHT22;23205;49.986;18.950;2022-08-01T17:38:57;23.50;99.90
37324;DHT22;23205;49.986;18.950;2022-08-01T17:43:59;23.50;99.90
37324;DHT22;23205;49.986;18.950;2022-08-01T17:49:00;23.40;99.90
37324;DHT22;23205;49.986;18.950;2022-08-01T17:54:03;23.30;99.90
37324;DHT22;23205;49.986;18.950;2022-08-01T17:59:04;23.10;99.90
37324;DHT22;23205;49.986;18.950;2022-08-01T18:04:08;23.00;99.90
37324;DHT22;23205;49.986;18.950;2022-08-01T18:09:13;22.90;99.90
37324;DHT22;23205;49.986;18.950;2022-08-01T18:14:16;22.80;99.90
37324;DHT22;23205;49.986;18.950;2022-08-01T18:19:17;22.60;99.90
37324;DHT22;23205;49.986;18.950;2022-08-01T18:24:23;22.50;99.90
37324;DHT22;23205;49.986;18.950;2022-08-01T18:29:25;22.50;99.90
37324;DHT22;23205;49.986;18.950;2022-08-01T18:34:28;22.30;99.90
37324;DHT22;23205;49.986;18.950;2022-08-01T18:39:29;22.20;99.90
37324;DHT22;23205;49.986;18.950;2022-08-01T18:44:32;22.10;99.90
37324;DHT22;23205;49.986;18.950;2022-08-01T18:49:33;22.00;99.90
37324;DHT22;23205;49.986;18.950;2022-08-01T18:54:36;21.90;99.90
37324;DHT22;23205;49.986;18.950;2022-08-01T18:59:37;21.80;99.90
37324;DHT22;23205;49.986;18.950;2022-08-01T19:04:40;21.70;99.90
37324;DHT22;23205;49.986;18.950;2022-08-01T19:09:41;21.70;99.90
37324;DHT22;23205;49.986;18.950;2022-08-01T19:14:42;21.70;99.90
37324;DHT22;23205;49.986;18.950;2022-08-01T19:19:43;21.60;99.90
37324;DHT22;23205;49.986;18.950;2022-08-01T19:24:43;21.40;99.90
37324;DHT22;23205;49.986;18.950;2022-08-01T19:29:51;21.30;99.90
37324;DHT22;23205;49.986;18.950;2022-08-01T19:39:59;21.10;99.90
37324;DHT22;23205;49.986;18.950;2022-08-01T19:45:02;21.00;99.90
37324;DHT22;23205;49.986;18.950;2022-08-01T19:50:05;20.80;99.90
37324;DHT22;23205;49.986;18.950;2022-08-01T19:55:08;20.80;99.90
37324;DHT22;23205;49.986;18.950;2022-08-01T20:00:10;20.80;99.90
37324;DHT22;23205;49.986;18.950;2022-08-01T20:05:11;20.70;99.90
37324;DHT22;23205;49.986;18.950;2022-08-01T20:10:14;20.60;99.90
37324;DHT22;23205;49.986;18.950;2022-08-01T20:15:16;20.60;99.90
37324;DHT22;23205;49.986;18.950;2022-08-01T20:20:17;20.60;99.90
37324;DHT22;23205;49.986;18.950;2022-08-01T20:25:19;20.70;99.90
37324;DHT22;23205;49.986;18.950;2022-08-01T20:30:23;20.60;99.90
37324;DHT22;23205;49.986;18.950;2022-08-01T20:35:25;20.70;99.90
37324;DHT22;23205;49.986;18.950;2022-08-01T20:40:30;20.60;99.90
37324;DHT22;23205;49.986;18.950;2022-08-01T20:45:33;20.40;99.90
37324;DHT22;23205;49.986;18.950;2022-08-01T20:50:34;20.40;99.90
37324;DHT22;23205;49.986;18.950;2022-08-01T20:56:02;20.30;99.90
37324;DHT22;23205;49.986;18.950;2022-08-01T21:01:04;20.30;99.90
37324;DHT22;23205;49.986;18.950;2022-08-01T21:06:12;20.30;99.90
37324;DHT22;23205;49.986;18.950;2022-08-01T21:11:19;20.20;99.90
37324;DHT22;23205;49.986;18.950;2022-08-01T21:16:27;20.10;99.90
37324;DHT22;23205;49.986;18.950;2022-08-01T21:21:31;20.10;99.90
37324;DHT22;23205;49.986;18.950;2022-08-01T21:26:35;20.00;99.90
37324;DHT22;23205;49.986;18.950;2022-08-01T21:31:38;20.00;99.90
37324;DHT22;23205;49.986;18.950;2022-08-01T21:36:43;20.00;99.90
37324;DHT22;23205;49.986;18.950;2022-08-01T21:41:45;19.90;99.90
37324;DHT22;23205;49.986;18.950;2022-08-01T21:46:46;19.90;99.90
37324;DHT22;23205;49.986;18.950;2022-08-01T21:51:54;19.80;99.90
37324;DHT22;23205;49.986;18.950;2022-08-01T22:02:28;19.90;99.90
37324;DHT22;23205;49.986;18.950;2022-08-01T22:07:36;19.90;99.90
37324;DHT22;23205;49.986;18.950;2022-08-01T22:12:38;19.90;99.90
37324;DHT22;23205;49.986;18.950;2022-08-01T22:17:40;19.80;99.90
37324;DHT22;23205;49.986;18.950;2022-08-01T22:22:41;19.70;99.90
37324;DHT22;23205;49.986;18.950;2022-08-01T22:27:42;19.60;99.90
37324;DHT22;23205;49.986;18.950;2022-08-01T22:32:46;19.50;99.90
37324;DHT22;23205;49.986;18.950;2022-08-01T22:37:48;19.40;99.90
37324;DHT22;23205;49.986;18.950;2022-08-01T22:42:52;19.30;99.90
37324;DHT22;23205;49.986;18.950;2022-08-01T22:48:14;19.30;99.90
37324;DHT22;23205;49.986;18.950;2022-08-01T22:58:22;19.20;99.90
37324;DHT22;23205;49.986;18.950;2022-08-01T23:03:32;19.10;99.90
37324;DHT22;23205;49.986;18.950;2022-08-01T23:08:34;19.00;99.90
37324;DHT22;23205;49.986;18.950;2022-08-01T23:13:36;18.90;99.90
37324;DHT22;23205;49.986;18.950;2022-08-01T23:18:38;18.80;99.90
37324;DHT22;23205;49.986;18.950;2022-08-01T23:23:39;18.80;99.90
37324;DHT22;23205;49.986;18.950;2022-08-01T23:28:41;18.70;99.90
37324;DHT22;23205;49.986;18.950;2022-08-01T23:33:42;18.70;99.90
37324;DHT22;23205;49.986;18.950;2022-08-01T23:38:43;18.70;99.90
37324;DHT22;23205;49.986;18.950;2022-08-01T23:43:44;18.70;99.90
37324;DHT22;23205;49.986;18.950;2022-08-01T23:48:46;18.60;99.90
37324;DHT22;23205;49.986;18.950;2022-08-01T23:53:47;18.50;99.90
37324;DHT22;23205;49.986;18.950;2022-08-01T23:58:48;18.40;99.90
